Time;durP1;ratioP1;P1;durP2;ratioP2;P2;SDS_P1;SDS_P2;PMS_P1;PMS_P2;Temp;Humidity;BMP_temperature;BMP_pressure;BME280_temperature;BME280_humidity;BME280_pressure;Samples;Min_cycle;Max_cycle;Signal;HPM_P1;HPM_P2
2022/12/16 00:01:52;;;;;;;26.83;4.45;;;;;;;-1.01;100.00;101162.28;5092724;28;20031;-73
2022/12/16 00:04:18;;;;;;;12.90;4.35;;;;;;;-1.01;100.00;101168.34;5093201;28;20065;-73
2022/12/16 00:06:43;;;;;;;16.30;4.43;;;;;;;-1.00;100.00;101166.59;5092833;28;20036;-73
2022/12/16 00:09:08;;;;;;;11.60;4.18;;;;;;;-1.04;100.00;101162.41;5093600;28;20061;-73
2022/12/16 00:11:34;;;;;;;17.05;4.53;;;;;;;-1.13;100.00;101167.03;5093289;28;20032;-73
2022/12/16 00:14:00;;;;;;;14.25;4.28;;;;;;;-1.17;100.00;101168.06;5093665;28;20028;-72
2022/12/16 00:16:25;;;;;;;14.27;4.38;;;;;;;-1.17;100.00;101170.66;5093108;28;20039;-73
2022/12/16 00:18:50;;;;;;;11.13;4.57;;;;;;;-1.17;100.00;101170.66;5092555;28;20365;-73
2022/12/16 00:21:19;;;;;;;16.05;3.95;;;;;;;-1.21;100.00;101182.13;5092911;28;20047;-73
2022/12/16 00:23:45;;;;;;;11.65;4.53;;;;;;;-1.27;100.00;101177.13;5093652;28;20036;-73
2022/12/16 00:26:11;;;;;;;13.45;4.40;;;;;;;-1.30;100.00;101174.63;5093006;28;20375;-72
2022/12/16 00:28:38;;;;;;;8.50;3.97;;;;;;;-1.34;100.00;101180.88;5092698;28;20037;-73
2022/12/16 00:31:03;;;;;;;12.10;4.28;;;;;;;-1.39;100.00;101175.81;5074984;28;20040;-72
2022/12/16 00:33:29;;;;;;;11.68;4.25;;;;;;;-1.38;100.00;101174.91;5074741;28;20457;-73
2022/12/16 00:35:56;;;;;;;10.68;4.20;;;;;;;-1.40;100.00;101181.94;5093054;28;20032;-73
2022/12/16 00:38:23;;;;;;;11.48;4.13;;;;;;;-1.45;100.00;101182.13;5092980;28;20456;-73
2022/12/16 00:40:48;;;;;;;9.52;4.07;;;;;;;-1.46;100.00;101183.00;5092952;28;20032;-73
2022/12/16 00:43:14;;;;;;;9.60;3.70;;;;;;;-1.46;100.00;101187.38;5092975;28;20051;-73
2022/12/16 00:45:39;;;;;;;8.52;4.10;;;;;;;-1.47;100.00;101185.66;5075038;28;20150;-73
2022/12/16 00:48:06;;;;;;;13.77;5.18;;;;;;;-1.44;100.00;101188.19;5093494;28;20070;-73
2022/12/16 00:50:31;;;;;;;11.55;5.32;;;;;;;-1.45;100.00;101182.13;5092753;28;20047;-73
2022/12/16 00:52:57;;;;;;;13.80;5.95;;;;;;;-1.44;100.00;101186.41;5092719;28;20025;-73
2022/12/16 00:55:23;;;;;;;13.07;5.97;;;;;;;-1.45;100.00;101184.72;5074543;28;20028;-73
2022/12/16 00:57:48;;;;;;;21.38;6.05;;;;;;;-1.45;100.00;101183.84;5092484;28;20043;-73
2022/12/16 01:00:15;;;;;;;14.23;6.30;;;;;;;-1.47;100.00;101188.28;5092878;28;20063;-73
2022/12/16 01:02:42;;;;;;;11.15;5.95;;;;;;;-1.48;100.00;101189.19;5092651;28;20039;-72
2022/12/16 01:05:09;;;;;;;11.13;5.57;;;;;;;-1.51;100.00;101184.06;5092741;28;20036;-73
2022/12/16 01:07:35;;;;;;;14.85;5.75;;;;;;;-1.53;100.00;101194.56;5093154;28;20117;-73
2022/12/16 01:10:00;;;;;;;8.02;5.70;;;;;;;-1.62;100.00;101195.72;5092743;28;20468;-72
2022/12/16 01:12:26;;;;;;;15.75;6.20;;;;;;;-1.66;100.00;101188.91;5095121;28;20464;-72
2022/12/16 01:14:51;;;;;;;21.00;6.70;;;;;;;-1.68;100.00;101189.88;5061905;28;20062;-72
2022/12/16 01:17:17;;;;;;;10.93;5.55;;;;;;;-1.71;100.00;101192.59;5096421;28;20028;-73
2022/12/16 01:19:42;;;;;;;17.08;5.85;;;;;;;-1.75;100.00;101194.44;5096268;28;20023;-70
2022/12/16 01:22:08;;;;;;;10.60;5.05;;;;;;;-1.79;100.00;101201.53;5096154;28;20063;-72
2022/12/16 01:24:33;;;;;;;13.48;4.90;;;;;;;-1.79;100.00;101211.13;5097017;28;20078;-72
2022/12/16 01:26:58;;;;;;;18.98;4.97;;;;;;;-1.77;100.00;101210.13;5096209;28;20036;-73
2022/12/16 01:29:24;;;;;;;16.08;4.82;;;;;;;-1.80;100.00;101215.47;5096019;28;20028;-72
2022/12/16 01:31:50;;;;;;;16.88;4.47;;;;;;;-1.82;100.00;101221.63;5095905;28;20032;-72
2022/12/16 01:34:15;;;;;;;10.57;3.88;;;;;;;-1.86;100.00;101217.44;5077738;28;20457;-72
2022/12/16 01:36:41;;;;;;;15.23;3.88;;;;;;;-1.95;100.00;101231.63;5077580;28;20051;-73
2022/12/16 01:39:08;;;;;;;10.82;3.60;;;;;;;-2.03;100.00;101233.59;5096313;28;20062;-73
2022/12/16 01:41:33;;;;;;;22.70;4.15;;;;;;;-2.11;100.00;101243.44;5096429;28;20099;-73
2022/12/16 01:44:21;;;;;;;12.20;3.83;;;;;;;-2.22;100.00;101249.84;5095277;28;20210;-73
2022/12/16 01:47:02;;;;;;;11.20;3.20;;;;;;;-2.29;100.00;101252.69;5095345;28;20028;-73
2022/12/16 01:49:36;;;;;;;6.63;3.08;;;;;;;-2.35;100.00;101258.94;5095740;28;20028;-73
2022/12/16 01:52:06;;;;;;;12.93;3.72;;;;;;;-2.46;100.00;101261.00;5095687;28;20027;-73
2022/12/16 01:54:38;;;;;;;5.82;3.05;;;;;;;-2.57;100.00;101264.75;5095801;28;20032;-73
2022/12/16 01:57:10;;;;;;;11.30;3.30;;;;;;;-2.66;100.00;101267.63;5095410;28;20028;-73
2022/12/16 01:59:39;;;;;;;10.48;2.88;;;;;;;-2.74;100.00;101273.06;5096465;28;20209;-72
2022/12/16 02:02:05;;;;;;;4.80;3.03;;;;;;;-2.79;100.00;101279.28;5095506;28;20054;-72
2022/12/16 02:04:30;;;;;;;12.50;2.88;;;;;;;-2.85;100.00;101277.75;5095566;28;20032;-73
2022/12/16 02:06:57;;;;;;;8.38;2.90;;;;;;;-2.87;100.00;101272.53;5095726;28;20035;-73
2022/12/16 02:09:23;;;;;;;11.73;3.42;;;;;;;-2.86;100.00;101279.47;5095040;28;20036;-72
2022/12/16 02:12:36;;;;;;;16.38;3.75;;;;;;;-2.83;100.00;101278.53;5095454;28;20380;-73
2022/12/16 02:15:30;;;;;;;10.85;3.08;;;;;;;-2.85;100.00;101272.53;5072917;28;20056;-73
2022/12/16 02:18:09;;;;;;;9.38;3.13;;;;;;;-2.81;100.00;101283.69;5077501;28;20081;-72
2022/12/16 02:20:43;;;;;;;16.10;3.55;;;;;;;-2.81;100.00;101283.69;5077366;28;20024;-72
2022/12/16 02:23:30;;;;;;;10.43;2.75;;;;;;;-2.83;100.00;101287.19;5093620;28;20483;-72
2022/12/16 02:26:10;;;;;;;8.40;2.92;;;;;;;-2.90;100.00;101287.41;5095131;28;20028;-73
2022/12/16 02:29:08;;;;;;;11.25;3.22;;;;;;;-3.01;100.00;101296.38;5095185;28;20028;-72
2022/12/16 02:31:46;;;;;;;11.60;2.67;;;;;;;-3.10;100.00;101293.16;5083670;28;20043;-72
2022/12/16 02:34:21;;;;;;;10.50;3.05;;;;;;;-3.15;100.00;101288.09;5094542;28;20024;-72
2022/12/16 02:37:02;;;;;;;8.30;2.53;;;;;;;-3.22;100.00;101286.53;5094332;28;20055;-72
2022/12/16 02:39:36;;;;;;;7.90;2.63;;;;;;;-3.22;100.00;101295.19;5095172;28;20024;-72
2022/12/16 02:42:13;;;;;;;6.97;3.67;;;;;;;-3.21;100.00;101286.50;5094973;28;20028;-71
2022/12/16 02:45:02;;;;;;;11.43;2.60;;;;;;;-3.22;100.00;101299.53;5094629;28;20028;-72
2022/12/16 02:47:29;;;;;;;8.38;2.40;;;;;;;-3.23;100.00;101293.47;5094554;28;20031;-72
2022/12/16 02:49:55;;;;;;;7.05;2.40;;;;;;;-3.25;100.00;101289.22;5094408;28;20190;-71
2022/12/16 02:52:23;;;;;;;11.00;2.60;;;;;;;-3.24;100.00;101298.72;5094284;28;20055;-72
2022/12/16 02:54:58;;;;;;;8.90;3.03;;;;;;;-3.20;100.00;101297.75;5094277;28;20055;-72
2022/12/16 02:57:42;;;;;;;12.27;2.30;;;;;;;-3.18;100.00;101298.53;5093909;28;20059;-72
2022/12/16 03:00:13;;;;;;;9.38;2.50;;;;;;;-3.12;100.00;101305.34;5095379;28;20071;-73
2022/12/16 03:02:41;;;;;;;;;;;;;;;-3.16;100.00;101308.91;5094942;28;20522;-72
2022/12/16 03:05:14;;;;;;;5.00;2.10;;;;;;;-3.22;100.00;101317.75;5094403;28;19918;-74
2022/12/16 03:07:42;;;;;;;8.73;2.05;;;;;;;-3.28;100.00;101323.97;5094813;28;20086;-72
2022/12/16 03:10:13;;;;;;;9.15;1.90;;;;;;;-3.33;100.00;101323.22;5094681;28;20453;-73
2022/12/16 03:12:41;;;;;;;6.65;2.25;;;;;;;-3.40;100.00;101316.47;5094206;28;20028;-72
2022/12/16 03:15:08;;;;;;;4.78;2.22;;;;;;;-3.46;100.00;101325.28;5093869;28;20435;-72
2022/12/16 03:17:36;;;;;;;5.20;1.70;;;;;;;-3.49;100.00;101329.69;5093819;28;20039;-72
2022/12/16 03:20:11;;;;;;;6.28;2.25;;;;;;;-3.48;100.00;101323.59;5075914;28;20035;-72
2022/12/16 03:22:40;;;;;;;6.78;2.03;;;;;;;-3.50;100.00;101323.66;5094016;28;20107;-72
2022/12/16 03:25:08;;;;;;;11.27;2.08;;;;;;;-3.53;100.00;101333.28;5093775;28;20043;-71
2022/12/16 03:27:45;;;;;;;18.70;2.05;;;;;;;-3.59;100.00;101319.50;5093706;28;20028;-72
2022/12/16 03:30:24;;;;;;;8.85;2.42;;;;;;;-3.62;100.00;101324.78;5093678;28;20063;-69
2022/12/16 03:33:02;;;;;;;4.60;2.40;;;;;;;-3.69;100.00;101332.78;5093496;28;20081;-73
2022/12/16 03:35:36;;;;;;;3.20;1.63;;;;;;;-3.78;100.00;101334.69;5093715;28;20032;-72
2022/12/16 03:38:05;;;;;;;10.63;1.90;;;;;;;-3.83;100.00;101331.34;5093568;28;20039;-71
2022/12/16 03:40:32;;;;;;;4.38;1.70;;;;;;;-3.88;100.00;101337.53;5093945;28;20161;-72
2022/12/16 03:43:00;;;;;;;3.80;1.88;;;;;;;-3.93;100.00;101337.66;5093627;28;20028;-72
2022/12/16 03:45:30;;;;;;;8.18;2.28;;;;;;;-3.99;100.00;101338.63;5093413;28;20067;-73
2022/12/16 03:47:56;;;;;;;3.40;1.80;;;;;;;-4.01;100.00;101345.63;5093994;28;20035;-72
2022/12/16 03:50:26;;;;;;;4.65;1.75;;;;;;;-4.04;100.00;101347.44;5092987;28;20486;-72
2022/12/16 03:52:52;;;;;;;3.75;1.48;;;;;;;-4.11;100.00;101347.56;5093286;28;20031;-72
2022/12/16 03:55:17;;;;;;;13.65;1.90;;;;;;;-4.14;100.00;101351.97;5093035;28;20071;-72
2022/12/16 03:57:42;;;;;;;4.18;1.75;;;;;;;-4.17;100.00;101354.63;5093139;28;20470;-72
2022/12/16 04:00:09;;;;;;;10.85;1.90;;;;;;;-4.22;100.00;101351.25;5074633;28;20040;-71
2022/12/16 04:02:34;;;;;;;7.90;2.10;;;;;;;-4.27;100.00;101354.84;5093391;28;20145;-71
2022/12/16 04:04:59;;;;;;;5.20;1.92;;;;;;;-4.31;100.00;101366.16;5093195;28;20456;-71
2022/12/16 04:07:25;;;;;;;1.75;1.42;;;;;;;-4.37;100.00;101368.91;5074643;28;20066;-71
2022/12/16 04:09:51;;;;;;;4.15;2.13;;;;;;;-4.40;100.00;101368.09;5092829;28;20487;-72
2022/12/16 04:26:04;;;;;;;4.05;1.85;;;;;;;-4.67;100.00;101366.00;5093518;28;20075;-72
2022/12/16 04:28:30;;;;;;;7.07;1.80;;;;;;;-4.69;100.00;101366.91;5092817;28;20384;-74
2022/12/16 04:30:56;;;;;;;3.13;1.58;;;;;;;-4.65;100.00;101384.16;5093012;28;20040;-73
